Time;durP1;ratioP1;P1;durP2;ratioP2;P2;SDS_P1;SDS_P2;PMS_P1;PMS_P2;Temp;Humidity;BMP_temperature;BMP_pressure;BME280_temperature;BME280_humidity;BME280_pressure;Samples;Min_cycle;Max_cycle;Signal;HPM_P1;HPM_P2
2022/03/28 00:01:56;;;;;;;15.35;3.53;;;;;;;;;;5091378;28;20040;-81
2022/03/28 00:04:22;;;;;;;13.80;3.03;;;;;;;;;;5096173;28;20047;-81
2022/03/28 00:06:49;;;;;;;15.40;3.33;;;;;;;;;;5113918;28;20036;-81
2022/03/28 00:09:15;;;;;;;17.23;3.38;;;;;;;;;;5113752;28;20102;-81
2022/03/28 00:11:42;;;;;;;22.83;3.85;;;;;;;;;;5095615;28;20114;-81
2022/03/28 00:14:08;;;;;;;14.38;3.08;;;;;;;;;;5095468;28;20055;-81
2022/03/28 00:16:35;;;;;;;14.90;3.40;;;;;;;;;;5113724;28;20556;-81
2022/03/28 00:19:01;;;;;;;15.15;3.30;;;;;;;;;;5113129;28;20079;-81
2022/03/28 00:21:28;;;;;;;13.93;3.20;;;;;;;;;;5113258;28;20558;-81
2022/03/28 00:23:54;;;;;;;11.38;3.03;;;;;;;;;;5094405;28;20145;-80
2022/03/28 00:26:21;;;;;;;18.80;4.10;;;;;;;;;;5114023;28;20114;-81
2022/03/28 00:28:47;;;;;;;14.32;3.13;;;;;;;;;;5111973;28;20105;-80
2022/03/28 00:31:14;;;;;;;13.85;3.50;;;;;;;;;;5113318;27;20110;-81
2022/03/28 00:33:41;;;;;;;15.32;2.95;;;;;;;;;;5114422;28;20044;-80
2022/03/28 00:36:07;;;;;;;17.50;3.50;;;;;;;;;;5114016;28;20051;-81
2022/03/28 00:38:34;;;;;;;14.35;2.90;;;;;;;;;;5095085;28;20510;-80
2022/03/28 00:41:01;;;;;;;14.98;3.05;;;;;;;;;;5109621;28;20097;-81
2022/03/28 00:43:28;;;;;;;21.92;3.95;;;;;;;;;;5093911;27;20110;-81
2022/03/28 00:45:54;;;;;;;15.77;3.35;;;;;;;;;;5107012;28;20056;-81
2022/03/28 00:48:20;;;;;;;12.93;3.05;;;;;;;;;;5112554;28;20103;-81
2022/03/28 00:50:47;;;;;;;19.98;3.42;;;;;;;;;;5112080;28;20092;-81
2022/03/28 00:53:14;;;;;;;11.65;3.28;;;;;;;;;;5094997;28;20044;-80
2022/03/28 00:55:41;;;;;;;13.27;2.90;;;;;;;;;;5095256;28;20052;-81
2022/03/28 00:58:07;;;;;;;18.42;3.50;;;;;;;;;;5113177;28;20048;-81
2022/03/28 01:00:34;;;;;;;14.23;3.58;;;;;;;;;;5091927;28;20079;-81
2022/03/28 01:03:01;;;;;;;13.88;2.70;;;;;;;;;;5095150;28;20067;-81
2022/03/28 01:05:27;;;;;;;14.15;3.47;;;;;;;;;;5094493;28;20576;-81
2022/03/28 01:07:55;;;;;;;16.67;3.75;;;;;;;;;;5094172;27;20585;-81
2022/03/28 01:10:22;;;;;;;24.40;3.58;;;;;;;;;;5093239;28;20098;-81
2022/03/28 01:12:48;;;;;;;25.77;4.80;;;;;;;;;;5094830;28;20101;-81
2022/03/28 01:15:18;;;;;;;23.88;4.15;;;;;;;;;;5095725;28;20095;-81
2022/03/28 01:20:31;;;;;;;18.77;4.35;;;;;;;;;;5107600;28;20699;-80
2022/03/28 01:22:57;;;;;;;22.13;3.83;;;;;;;;;;5094900;28;20055;-81
2022/03/28 01:25:24;;;;;;;22.42;4.07;;;;;;;;;;5095352;28;20122;-81
2022/03/28 01:27:54;;;;;;;23.50;4.85;;;;;;;;;;5095037;28;20574;-80
2022/03/28 01:30:21;;;;;;;22.40;3.40;;;;;;;;;;5093445;28;20082;-80
2022/03/28 01:32:48;;;;;;;21.83;4.50;;;;;;;;;;5111261;28;20036;-80
2022/03/28 01:35:28;;;;;;;24.27;4.38;;;;;;;;;;5103697;28;20129;-81
2022/03/28 01:37:55;;;;;;;21.38;3.72;;;;;;;;;;5105478;28;20056;-80
2022/03/28 01:40:21;;;;;;;16.63;3.78;;;;;;;;;;5092800;28;20117;-81
2022/03/28 01:42:49;;;;;;;13.18;3.55;;;;;;;;;;5094638;28;20052;-80
2022/03/28 01:45:17;;;;;;;21.98;3.92;;;;;;;;;;5094489;28;20048;-80
2022/03/28 01:47:45;;;;;;;15.43;3.58;;;;;;;;;;5112991;28;20055;-81
2022/03/28 01:50:11;;;;;;;29.58;4.53;;;;;;;;;;5111092;27;20052;-81
2022/03/28 01:52:38;;;;;;;17.05;3.85;;;;;;;;;;5093969;28;20056;-80
2022/03/28 01:55:05;;;;;;;20.58;3.90;;;;;;;;;;5112646;28;20048;-80
2022/03/28 01:57:31;;;;;;;13.90;3.42;;;;;;;;;;5112242;28;20129;-80
2022/03/28 01:59:57;;;;;;;20.42;4.03;;;;;;;;;;5093368;28;20589;-80
2022/03/28 02:02:24;;;;;;;23.98;4.15;;;;;;;;;;5094204;28;20052;-81
2022/03/28 02:04:50;;;;;;;17.80;3.72;;;;;;;;;;5093831;28;20052;-80
2022/03/28 02:07:17;;;;;;;17.00;4.38;;;;;;;;;;5094901;28;20056;-81
2022/03/28 02:09:45;;;;;;;20.48;4.03;;;;;;;;;;5111533;28;20048;-80
2022/03/28 02:12:11;;;;;;;19.85;4.03;;;;;;;;;;5111438;28;20075;-81
2022/03/28 02:14:37;;;;;;;17.65;4.10;;;;;;;;;;5093242;28;20101;-80
2022/03/28 02:17:04;;;;;;;23.42;4.30;;;;;;;;;;5111830;28;20052;-80
2022/03/28 02:19:30;;;;;;;21.98;4.25;;;;;;;;;;5093584;28;20048;-80
2022/03/28 02:21:57;;;;;;;21.17;3.78;;;;;;;;;;5103940;28;20056;-81
2022/03/28 02:24:23;;;;;;;23.27;4.72;;;;;;;;;;5090487;28;20070;-80
2022/03/28 02:26:49;;;;;;;23.77;3.83;;;;;;;;;;5091479;28;20064;-80
2022/03/28 02:29:16;;;;;;;28.13;5.32;;;;;;;;;;5091941;27;20052;-80
2022/03/28 02:31:42;;;;;;;14.80;4.05;;;;;;;;;;5093231;28;20053;-80
2022/03/28 02:34:08;;;;;;;21.38;4.70;;;;;;;;;;5111679;28;20056;-80
2022/03/28 02:36:35;;;;;;;23.17;4.82;;;;;;;;;;5110850;27;20478;-80
2022/03/28 02:39:01;;;;;;;19.20;4.38;;;;;;;;;;5110344;28;20863;-80
2022/03/28 02:41:28;;;;;;;15.98;4.00;;;;;;;;;;5108260;28;20109;-80
2022/03/28 02:43:54;;;;;;;17.83;3.85;;;;;;;;;;5093587;28;20060;-80
2022/03/28 02:46:20;;;;;;;19.40;4.32;;;;;;;;;;5111541;28;20095;-80
2022/03/28 02:48:47;;;;;;;18.02;4.78;;;;;;;;;;5093485;28;20060;-80
2022/03/28 02:51:13;;;;;;;21.48;4.65;;;;;;;;;;5091994;28;20052;-80
2022/03/28 02:53:40;;;;;;;16.73;4.30;;;;;;;;;;5093465;28;20965;-80
2022/03/28 02:56:06;;;;;;;23.02;4.72;;;;;;;;;;5113828;27;20048;-80
2022/03/28 02:58:32;;;;;;;19.15;5.53;;;;;;;;;;5106818;28;20044;-80
2022/03/28 03:00:59;;;;;;;20.60;4.88;;;;;;;;;;5110534;28;20161;-80
2022/03/28 03:03:25;;;;;;;24.48;5.35;;;;;;;;;;5092703;28;20513;-80
2022/03/28 03:05:52;;;;;;;17.80;4.25;;;;;;;;;;5093245;28;20090;-80
2022/03/28 03:08:19;;;;;;;22.40;5.85;;;;;;;;;;5092729;28;20063;-80
2022/03/28 03:10:45;;;;;;;19.80;4.82;;;;;;;;;;5109571;28;20097;-80
2022/03/28 03:13:11;;;;;;;20.30;5.30;;;;;;;;;;5093327;28;20063;-80
2022/03/28 03:15:38;;;;;;;23.52;5.55;;;;;;;;;;5109346;28;20060;-80
2022/03/28 03:18:04;;;;;;;18.90;4.65;;;;;;;;;;5092946;28;20542;-80
2022/03/28 03:20:32;;;;;;;26.63;5.18;;;;;;;;;;5079939;28;20060;-80
2022/03/28 03:22:59;;;;;;;16.23;4.25;;;;;;;;;;5098008;28;20216;-80
2022/03/28 03:25:25;;;;;;;22.02;5.13;;;;;;;;;;5110053;28;20044;-80
2022/03/28 03:27:52;;;;;;;17.02;5.03;;;;;;;;;;5110535;28;20445;-80
2022/03/28 03:30:19;;;;;;;17.05;4.28;;;;;;;;;;5093077;28;20070;-80
2022/03/28 03:32:45;;;;;;;19.42;4.80;;;;;;;;;;5110691;28;20095;-80
2022/03/28 03:35:12;;;;;;;17.73;4.78;;;;;;;;;;5092622;27;20499;-80
2022/03/28 03:37:39;;;;;;;15.18;4.63;;;;;;;;;;5091780;28;20499;-80
2022/03/28 03:40:06;;;;;;;16.60;4.72;;;;;;;;;;5092566;28;20060;-80
2022/03/28 03:42:33;;;;;;;19.63;4.90;;;;;;;;;;5111294;28;20510;-80
2022/03/28 03:45:00;;;;;;;20.17;5.30;;;;;;;;;;5092675;28;20560;-80
2022/03/28 03:47:26;;;;;;;21.70;5.78;;;;;;;;;;5110620;28;20399;-80
2022/03/28 03:49:53;;;;;;;17.80;5.43;;;;;;;;;;5092536;28;20048;-80
2022/03/28 03:52:19;;;;;;;17.98;5.30;;;;;;;;;;5093045;28;20048;-80
2022/03/28 03:54:45;;;;;;;23.38;5.97;;;;;;;;;;5092958;28;20056;-79
2022/03/28 03:57:12;;;;;;;21.40;6.88;;;;;;;;;;5091900;28;20052;-80
2022/03/28 03:59:38;;;;;;;19.67;6.13;;;;;;;;;;5109170;28;20515;-80
2022/03/28 04:02:05;;;;;;;20.85;6.03;;;;;;;;;;5104312;28;20503;-80
2022/03/28 04:04:31;;;;;;;21.40;6.30;;;;;;;;;;5111345;27;20044;-80
2022/03/28 04:06:58;;;;;;;21.10;6.05;;;;;;;;;;5091628;28;20052;-80
2022/03/28 04:09:24;;;;;;;21.20;6.05;;;;;;;;;;5111068;28;20460;-80
2022/03/28 04:11:50;;;;;;;22.15;6.68;;;;;;;;;;5108682;28;20568;-80
2022/03/28 04:14:17;;;;;;;22.42;6.55;;;;;;;;;;5110116;28;20109;-80
2022/03/28 04:16:43;;;;;;;20.55;6.50;;;;;;;;;;5110120;28;20044;-80
2022/03/28 04:19:10;;;;;;;20.17;7.63;;;;;;;;;;5092141;28;20118;-80
2022/03/28 04:21:36;;;;;;;22.35;6.68;;;;;;;;;;5109013;28;20105;-80
2022/03/28 04:24:03;;;;;;;22.70;7.60;;;;;;;;;;5091940;28;20517;-80
2022/03/28 04:26:30;;;;;;;21.25;7.25;;;;;;;;;;5109767;28;20036;-80
2022/03/28 04:28:57;;;;;;;23.15;7.78;;;;;;;;;;5110695;28;20102;-79
2022/03/28 04:31:23;;;;;;;26.15;8.52;;;;;;;;;;5109844;28;20044;-80
2022/03/28 04:33:50;;;;;;;21.90;7.45;;;;;;;;;;5110912;28;20063;-80
2022/03/28 04:36:17;;;;;;;22.08;8.13;;;;;;;;;;5107276;28;20056;-79
2022/03/28 04:38:43;;;;;;;16.50;7.25;;;;;;;;;;5116117;28;20133;-80
2022/03/28 04:41:10;;;;;;;23.92;7.90;;;;;;;;;;5106572;28;20044;-80
2022/03/28 04:43:36;;;;;;;19.58;7.72;;;;;;;;;;5089407;28;20048;-80
2022/03/28 04:46:03;;;;;;;17.65;7.53;;;;;;;;;;5120553;28;20052;-80
2022/03/28 04:48:29;;;;;;;19.73;8.50;;;;;;;;;;5093231;28;20552;-80
2022/03/28 04:50:55;;;;;;;18.15;7.30;;;;;;;;;;5092401;28;20074;-80
2022/03/28 04:53:22;;;;;;;22.27;8.38;;;;;;;;;;5114232;28;20052;-81
2022/03/28 04:55:48;;;;;;;25.67;10.05;;;;;;;;;;5094232;28;20056;-80
2022/03/28 04:58:16;;;;;;;18.42;8.73;;;;;;;;;;5094622;28;20485;-81
2022/03/28 05:00:43;;;;;;;18.88;7.55;;;;;;;;;;5112966;28;20055;-80
2022/03/28 05:03:09;;;;;;;18.42;7.88;;;;;;;;;;5112908;28;20048;-80
2022/03/28 05:05:36;;;;;;;19.50;7.68;;;;;;;;;;5111917;28;20048;-81
2022/03/28 05:08:02;;;;;;;19.38;7.70;;;;;;;;;;5097040;27;20954;-81
2022/03/28 05:10:34;;;;;;;18.23;7.97;;;;;;;;;;5107915;28;20051;-80
2022/03/28 05:13:00;;;;;;;19.23;8.18;;;;;;;;;;5095054;28;20048;-80
2022/03/28 05:15:27;;;;;;;19.88;8.38;;;;;;;;;;5111282;28;20133;-80
2022/03/28 05:17:53;;;;;;;19.10;6.90;;;;;;;;;;5093846;28;20056;-80
2022/03/28 05:20:20;;;;;;;17.40;7.72;;;;;;;;;;5094132;28;20121;-81
2022/03/28 05:22:46;;;;;;;17.88;7.07;;;;;;;;;;5094388;27;20105;-80
2022/03/28 05:25:13;;;;;;;17.52;7.30;;;;;;;;;;5094146;28;20056;-80
2022/03/28 05:27:46;;;;;;;14.35;5.68;;;;;;;;;;5112410;28;20048;-80
2022/03/28 05:30:12;;;;;;;14.52;6.15;;;;;;;;;;5093898;28;20052;-80
2022/03/28 05:32:39;;;;;;;15.32;6.20;;;;;;;;;;5112622;28;20060;-81
2022/03/28 05:35:06;;;;;;;15.77;5.97;;;;;;;;;;5111748;28;20060;-81
2022/03/28 05:37:33;;;;;;;15.50;6.30;;;;;;;;;;5094235;28;20056;-81
2022/03/28 05:40:00;;;;;;;13.85;5.15;;;;;;;;;;5112462;28;20133;-81
2022/03/28 05:42:26;;;;;;;14.25;5.10;;;;;;;;;;5112285;28;20075;-81
2022/03/28 05:44:52;;;;;;;12.45;5.22;;;;;;;;;;5092922;28;20540;-81
2022/03/28 05:47:19;;;;;;;18.63;5.05;;;;;;;;;;5093877;28;20205;-80
2022/03/28 05:49:45;;;;;;;15.07;5.22;;;;;;;;;;5094360;28;20059;-81
2022/03/28 05:52:12;;;;;;;11.93;4.57;;;;;;;;;;5111798;28;20109;-80
2022/03/28 05:54:38;;;;;;;14.25;4.97;;;;;;;;;;5092989;28;20052;-81
2022/03/28 05:57:05;;;;;;;15.20;5.28;;;;;;;;;;5112669;28;20511;-81
2022/03/28 05:59:32;;;;;;;14.57;5.07;;;;;;;;;;5094826;28;20052;-80
2022/03/28 06:01:58;;;;;;;11.30;4.57;;;;;;;;;;5093719;28;20078;-81
2022/03/28 06:04:25;;;;;;;12.80;5.03;;;;;;;;;;5110467;27;20054;-81
2022/03/28 06:06:51;;;;;;;17.25;5.57;;;;;;;;;;5094041;28;20121;-80
2022/03/28 06:09:18;;;;;;;15.00;5.13;;;;;;;;;;5094530;28;20052;-80
2022/03/28 06:11:44;;;;;;;11.20;4.65;;;;;;;;;;5093866;28;20651;-80
2022/03/28 06:14:10;;;;;;;13.70;4.60;;;;;;;;;;5105886;27;20753;-80
2022/03/28 06:16:37;;;;;;;11.75;4.30;;;;;;;;;;5086741;28;20556;-81
2022/03/28 06:19:04;;;;;;;9.07;4.13;;;;;;;;;;5111479;28;20052;-81
2022/03/28 06:21:30;;;;;;;8.40;3.72;;;;;;;;;;5093948;28;20052;-81
2022/03/28 06:23:57;;;;;;;9.23;3.88;;;;;;;;;;5113039;28;20280;-81
2022/03/28 06:26:24;;;;;;;11.50;4.25;;;;;;;;;;5094402;28;20055;-81
2022/03/28 06:28:50;;;;;;;10.38;4.55;;;;;;;;;;5094263;28;20036;-81
2022/03/28 06:31:16;;;;;;;14.02;4.90;;;;;;;;;;5094777;28;20056;-81
2022/03/28 06:33:43;;;;;;;9.00;4.28;;;;;;;;;;5094003;28;20530;-81
2022/03/28 06:36:09;;;;;;;11.82;4.25;;;;;;;;;;5110696;28;20219;-81
2022/03/28 06:38:36;;;;;;;10.23;4.47;;;;;;;;;;5111037;28;20056;-81
2022/03/28 06:41:03;;;;;;;15.35;4.88;;;;;;;;;;5111835;28;20568;-81
2022/03/28 06:43:29;;;;;;;15.18;4.75;;;;;;;;;;5110234;28;20987;-81
2022/03/28 06:45:56;;;;;;;11.95;4.72;;;;;;;;;;5093662;28;20060;-81
2022/03/28 06:48:22;;;;;;;9.18;3.70;;;;;;;;;;5091952;28;20054;-81
2022/03/28 06:50:59;;;;;;;9.50;3.88;;;;;;;;;;5112276;28;20040;-81
2022/03/28 06:53:26;;;;;;;14.55;4.30;;;;;;;;;;5111099;28;20056;-80
2022/03/28 06:55:53;;;;;;;11.95;4.50;;;;;;;;;;5110142;27;20088;-80
2022/03/28 06:58:19;;;;;;;14.48;4.20;;;;;;;;;;5092898;28;20294;-81
2022/03/28 07:00:46;;;;;;;9.45;4.43;;;;;;;;;;5111917;28;20063;-80
2022/03/28 07:03:12;;;;;;;9.93;3.88;;;;;;;;;;5110592;28;20153;-81
2022/03/28 07:05:42;;;;;;;8.90;4.20;;;;;;;;;;5111449;27;20056;-81
2022/03/28 07:08:09;;;;;;;8.20;3.88;;;;;;;;;;5094020;28;20028;-81
2022/03/28 07:10:35;;;;;;;10.55;3.78;;;;;;;;;;5109361;27;20097;-81
2022/03/28 07:13:02;;;;;;;10.23;4.32;;;;;;;;;;5093130;28;20048;-81
2022/03/28 07:15:29;;;;;;;11.05;3.83;;;;;;;;;;5110742;28;20135;-81
2022/03/28 07:17:58;;;;;;;12.80;4.25;;;;;;;;;;5113049;27;20506;-80
2022/03/28 07:20:26;;;;;;;11.20;4.15;;;;;;;;;;5100455;27;20044;-82
2022/03/28 07:22:53;;;;;;;11.07;4.60;;;;;;;;;;5100843;28;20048;-81
2022/03/28 07:25:20;;;;;;;11.02;4.70;;;;;;;;;;5108456;27;20056;-81
2022/03/28 07:27:47;;;;;;;13.18;4.60;;;;;;;;;;5103406;27;20044;-81
2022/03/28 07:30:14;;;;;;;13.30;5.00;;;;;;;;;;5091778;28;20056;-81
2022/03/28 07:32:41;;;;;;;11.77;4.68;;;;;;;;;;5091936;27;20052;-81
2022/03/28 07:35:08;;;;;;;11.10;5.30;;;;;;;;;;5110130;28;20036;-81
2022/03/28 07:37:34;;;;;;;11.38;4.53;;;;;;;;;;5092701;27;20052;-81
2022/03/28 07:40:01;;;;;;;14.07;5.32;;;;;;;;;;5109630;28;20181;-81
2022/03/28 07:42:28;;;;;;;12.30;5.40;;;;;;;;;;5092404;28;20048;-81
2022/03/28 07:44:55;;;;;;;17.77;5.50;;;;;;;;;;5099413;28;20568;-81
2022/03/28 07:47:23;;;;;;;12.23;4.93;;;;;;;;;;5102733;28;20158;-82
2022/03/28 07:49:50;;;;;;;14.10;5.53;;;;;;;;;;5091288;28;21107;-82
2022/03/28 07:52:22;;;;;;;12.10;5.50;;;;;;;;;;5093652;28;20059;-82
2022/03/28 07:54:49;;;;;;;16.70;6.03;;;;;;;;;;5089920;28;20048;-79
2022/03/28 07:57:16;;;;;;;11.98;5.20;;;;;;;;;;5109924;28;20052;-80
2022/03/28 07:59:43;;;;;;;13.57;5.38;;;;;;;;;;5107905;27;20099;-80
2022/03/28 08:02:12;;;;;;;11.45;5.28;;;;;;;;;;5108651;27;20652;-79
2022/03/28 08:04:38;;;;;;;11.02;5.25;;;;;;;;;;5085423;28;20084;-80
2022/03/28 08:07:08;;;;;;;19.90;6.38;;;;;;;;;;5100287;27;20060;-79
2022/03/28 08:09:39;;;;;;;13.52;5.78;;;;;;;;;;5108188;27;20052;-80
2022/03/28 08:12:06;;;;;;;14.85;5.88;;;;;;;;;;5093927;28;20064;-80
2022/03/28 08:14:33;;;;;;;13.52;5.97;;;;;;;;;;5112930;28;20098;-79
2022/03/28 08:16:59;;;;;;;15.18;6.07;;;;;;;;;;5112430;27;20044;-79
2022/03/28 08:19:26;;;;;;;13.57;5.63;;;;;;;;;;5086522;28;20888;-79
2022/03/28 08:21:53;;;;;;;12.75;6.10;;;;;;;;;;5105307;28;20782;-79
2022/03/28 08:24:19;;;;;;;11.75;6.05;;;;;;;;;;5101217;28;20055;-79
2022/03/28 08:26:46;;;;;;;17.17;5.88;;;;;;;;;;5100706;28;20048;-79
2022/03/28 08:29:13;;;;;;;14.63;6.40;;;;;;;;;;5108152;28;20051;-80
2022/03/28 08:31:40;;;;;;;13.48;6.35;;;;;;;;;;5097487;28;20106;-80
2022/03/28 08:34:07;;;;;;;15.35;6.30;;;;;;;;;;5096561;28;20050;-80
2022/03/28 08:36:34;;;;;;;15.15;6.38;;;;;;;;;;5101201;28;20595;-80
2022/03/28 08:39:01;;;;;;;13.13;6.55;;;;;;;;;;5095887;27;20063;-80
2022/03/28 08:41:28;;;;;;;13.50;7.10;;;;;;;;;;5114630;27;20174;-80
2022/03/28 08:43:54;;;;;;;16.17;6.57;;;;;;;;;;5117936;27;20114;-80
2022/03/28 08:46:21;;;;;;;12.15;6.18;;;;;;;;;;5102371;28;20096;-79
2022/03/28 08:48:47;;;;;;;13.88;6.57;;;;;;;;;;5093357;28;20132;-78
2022/03/28 08:51:16;;;;;;;15.05;7.07;;;;;;;;;;5111764;27;20052;-79
2022/03/28 08:53:43;;;;;;;15.95;6.53;;;;;;;;;;5111173;28;20590;-79
2022/03/28 08:56:09;;;;;;;16.40;7.13;;;;;;;;;;5109521;27;20059;-79
2022/03/28 08:58:56;;;;;;;14.95;6.88;;;;;;;;;;5098391;27;20514;-79
2022/03/28 09:01:23;;;;;;;18.60;7.18;;;;;;;;;;5112359;28;20109;-79
2022/03/28 09:03:50;;;;;;;16.50;7.28;;;;;;;;;;5099959;28;20055;-81
2022/03/28 09:06:32;;;;;;;16.13;7.80;;;;;;;;;;5120069;27;20105;-81
2022/03/28 09:09:12;;;;;;;16.60;8.02;;;;;;;;;;5103897;28;20059;-79
2022/03/28 09:11:39;;;;;;;19.73;8.10;;;;;;;;;;5113731;28;20044;-79
2022/03/28 09:14:25;;;;;;;15.43;8.13;;;;;;;;;;5112409;28;20129;-81
2022/03/28 09:16:58;;;;;;;19.70;8.25;;;;;;;;;;5094573;27;20113;-80
2022/03/28 09:19:24;;;;;;;19.83;8.50;;;;;;;;;;5095836;28;20055;-79
2022/03/28 09:21:53;;;;;;;16.42;7.57;;;;;;;;;;5093807;28;20074;-79
2022/03/28 09:24:29;;;;;;;17.23;9.05;;;;;;;;;;5094303;28;20060;-80
2022/03/28 09:27:09;;;;;;;17.08;9.25;;;;;;;;;;5105570;27;20071;-80
2022/03/28 09:29:51;;;;;;;15.32;8.23;;;;;;;;;;5092009;28;20059;-79
2022/03/28 09:32:22;;;;;;;19.33;9.50;;;;;;;;;;5092820;28;20117;-79
2022/03/28 09:35:03;;;;;;;20.23;8.48;;;;;;;;;;5097603;28;20067;-80
2022/03/28 09:37:30;;;;;;;;;;;;;;;;;;5115258;27;20129;-81
2022/03/28 09:39:57;;;;;;;16.48;8.70;;;;;;;;;;5093492;27;46318;-81
2022/03/28 09:42:23;;;;;;;20.70;8.00;;;;;;;;;;5091534;28;20052;-80
2022/03/28 09:44:51;;;;;;;24.25;9.73;;;;;;;;;;5088532;27;20055;-80
2022/03/28 09:47:19;;;;;;;21.80;8.60;;;;;;;;;;5101448;28;20936;-80
2022/03/28 09:49:46;;;;;;;19.30;8.70;;;;;;;;;;5098192;28;20056;-81
2022/03/28 09:52:14;;;;;;;25.27;9.25;;;;;;;;;;5115750;28;20106;-80
2022/03/28 09:54:46;;;;;;;23.02;9.73;;;;;;;;;;5098922;28;20055;-81
2022/03/28 09:57:13;;;;;;;17.25;8.50;;;;;;;;;;5100008;28;20596;-80
2022/03/28 09:59:40;;;;;;;18.38;8.95;;;;;;;;;;5098585;28;20385;-81
2022/03/28 10:02:14;;;;;;;19.23;8.75;;;;;;;;;;5098543;28;20201;-80
2022/03/28 10:04:43;;;;;;;26.30;11.40;;;;;;;;;;5095364;28;20087;-80
2022/03/28 10:07:09;;;;;;;24.55;11.77;;;;;;;;;;5112722;27;20056;-80
2022/03/28 10:09:36;;;;;;;27.50;14.27;;;;;;;;;;5103635;28;20053;-81
2022/03/28 10:12:03;;;;;;;26.35;13.45;;;;;;;;;;5120715;28;20044;-82
2022/03/28 10:14:31;;;;;;;26.45;13.93;;;;;;;;;;5104745;28;20062;-80
2022/03/28 10:16:57;;;;;;;27.30;13.77;;;;;;;;;;5094760;28;20130;-81
2022/03/28 10:19:24;;;;;;;21.00;11.10;;;;;;;;;;5094598;28;20140;-81
2022/03/28 10:21:51;;;;;;;23.00;11.68;;;;;;;;;;5100954;28;20049;-80
2022/03/28 10:24:24;;;;;;;27.85;11.80;;;;;;;;;;5112096;28;20044;-80
2022/03/28 10:26:52;;;;;;;27.27;12.35;;;;;;;;;;5095795;28;20105;-80
2022/03/28 10:29:21;;;;;;;21.85;11.70;;;;;;;;;;5111248;28;20052;-81
2022/03/28 10:31:54;;;;;;;21.08;10.40;;;;;;;;;;5112560;28;20052;-81
2022/03/28 10:34:47;;;;;;;22.13;9.95;;;;;;;;;;5115822;28;20055;-83
2022/03/28 10:37:24;;;;;;;19.70;9.60;;;;;;;;;;5120395;28;20056;-82
2022/03/28 10:39:51;;;;;;;21.95;10.35;;;;;;;;;;5098222;28;20097;-82
2022/03/28 10:42:18;;;;;;;21.45;10.23;;;;;;;;;;5104602;28;20090;-82
2022/03/28 10:44:45;;;;;;;20.08;9.57;;;;;;;;;;5104549;28;20056;-83
2022/03/28 10:47:14;;;;;;;22.92;10.45;;;;;;;;;;5102926;28;20068;-82
2022/03/28 10:49:41;;;;;;;16.58;9.35;;;;;;;;;;5104952;28;20038;-82
2022/03/28 10:52:11;;;;;;;18.50;8.30;;;;;;;;;;5104520;28;20129;-83
2022/03/28 10:54:38;;;;;;;19.65;9.43;;;;;;;;;;5122680;28;20048;-82
2022/03/28 10:57:04;;;;;;;17.83;8.68;;;;;;;;;;5104710;27;20041;-83
2022/03/28 10:59:31;;;;;;;17.88;8.98;;;;;;;;;;5101515;28;20044;-82
2022/03/28 11:01:57;;;;;;;22.08;8.30;;;;;;;;;;5103156;28;20052;-82
2022/03/28 11:04:24;;;;;;;20.30;9.05;;;;;;;;;;5098754;28;20135;-81
2022/03/28 11:07:03;;;;;;;18.98;8.93;;;;;;;;;;5108705;27;20048;-81
2022/03/28 11:09:49;;;;;;;18.85;8.52;;;;;;;;;;5109280;28;20153;-81
2022/03/28 11:12:19;;;;;;;17.42;8.30;;;;;;;;;;5107281;28;20101;-85
2022/03/28 11:14:49;;;;;;;19.38;8.98;;;;;;;;;;5106937;28;20048;-83
2022/03/28 11:17:17;;;;;;;20.75;9.10;;;;;;;;;;5102692;28;20201;-82
2022/03/28 11:19:54;;;;;;;21.58;8.40;;;;;;;;;;5097551;28;20598;-83
2022/03/28 11:22:50;;;;;;;19.63;8.75;;;;;;;;;;5096618;28;20118;-83
2022/03/28 11:25:35;;;;;;;20.15;8.40;;;;;;;;;;5109503;28;20056;-84
2022/03/28 11:28:15;;;;;;;17.38;7.93;;;;;;;;;;5079095;28;20125;-83
2022/03/28 11:30:48;;;;;;;16.92;7.55;;;;;;;;;;5101572;27;20057;-84
2022/03/28 11:33:17;;;;;;;19.75;7.85;;;;;;;;;;5081292;28;20056;-82
2022/03/28 11:35:52;;;;;;;19.02;8.15;;;;;;;;;;5092708;28;20048;-84
2022/03/28 11:38:23;;;;;;;22.13;8.85;;;;;;;;;;5109359;28;20079;-81
2022/03/28 11:40:49;;;;;;;17.60;8.40;;;;;;;;;;5092714;28;20063;-82
2022/03/28 11:43:16;;;;;;;20.50;8.23;;;;;;;;;;5092363;28;20056;-85
2022/03/28 11:45:47;;;;;;;18.65;8.35;;;;;;;;;;5082183;28;20079;-83
2022/03/28 11:48:15;;;;;;;16.50;7.82;;;;;;;;;;5111859;28;20143;-82
2022/03/28 11:50:42;;;;;;;16.10;8.43;;;;;;;;;;5093036;28;20063;-87
2022/03/28 11:53:15;;;;;;;18.58;8.35;;;;;;;;;;5089039;28;20040;-83
2022/03/28 11:55:47;;;;;;;16.00;7.72;;;;;;;;;;5079817;27;20800;-82
2022/03/28 11:58:19;;;;;;;16.98;7.93;;;;;;;;;;5090817;28;20048;-82
2022/03/28 12:00:48;;;;;;;21.48;8.32;;;;;;;;;;5093912;28;20071;-82
2022/03/28 12:03:15;;;;;;;23.58;8.57;;;;;;;;;;5111538;28;20082;-83
2022/03/28 12:05:46;;;;;;;17.40;8.20;;;;;;;;;;5111285;28;20067;-84
2022/03/28 12:08:15;;;;;;;;;;;;;;;;;;5093013;28;20113;-84
2022/03/28 12:10:43;;;;;;;17.90;8.23;;;;;;;;;;5110524;28;46741;-83
2022/03/28 12:13:10;;;;;;;17.85;7.88;;;;;;;;;;5090079;28;20067;-83
2022/03/28 12:15:38;;;;;;;19.55;7.95;;;;;;;;;;5092161;28;20101;-82
2022/03/28 12:18:06;;;;;;;20.45;8.38;;;;;;;;;;5092383;28;20671;-85
2022/03/28 12:20:37;;;;;;;17.98;8.23;;;;;;;;;;5091550;28;20056;-85
2022/03/28 12:23:05;;;;;;;23.08;9.05;;;;;;;;;;5093073;28;20499;-86
2022/03/28 12:25:35;;;;;;;17.02;8.02;;;;;;;;;;5111923;28;20032;-87
2022/03/28 12:28:13;;;;;;;16.77;8.52;;;;;;;;;;5092956;28;22331;-86
2022/03/28 12:30:41;;;;;;;18.75;8.18;;;;;;;;;;5101510;28;20060;-85
2022/03/28 12:33:18;;;;;;;18.48;8.40;;;;;;;;;;5095981;28;20044;-83
2022/03/28 12:35:46;;;;;;;18.77;8.18;;;;;;;;;;5111607;28;20083;-84
2022/03/28 12:38:15;;;;;;;21.20;9.10;;;;;;;;;;5112502;28;20080;-87
2022/03/28 12:40:44;;;;;;;19.40;8.10;;;;;;;;;;5104460;28;20057;-87
2022/03/28 12:43:11;;;;;;;19.15;8.25;;;;;;;;;;5093328;28;20056;-86
2022/03/28 12:45:39;;;;;;;25.65;8.27;;;;;;;;;;5112917;27;20110;-83
2022/03/28 12:48:06;;;;;;;19.85;8.18;;;;;;;;;;5093952;28;20494;-86
2022/03/28 12:50:55;;;;;;;17.98;7.85;;;;;;;;;;5114280;27;20542;-82
2022/03/28 12:53:25;;;;;;;21.45;8.25;;;;;;;;;;5097018;28;20504;-83
2022/03/28 12:55:51;;;;;;;17.90;6.82;;;;;;;;;;5105431;28;20052;-85
2022/03/28 12:58:18;;;;;;;18.58;8.45;;;;;;;;;;5093939;27;20846;-83
2022/03/28 13:00:45;;;;;;;20.98;7.45;;;;;;;;;;5098126;27;20060;-82
2022/03/28 13:03:27;;;;;;;16.70;7.50;;;;;;;;;;5088132;28;20048;-86
2022/03/28 13:06:04;;;;;;;19.70;6.93;;;;;;;;;;5092131;27;20053;-83
2022/03/28 13:08:34;;;;;;;19.20;7.47;;;;;;;;;;5097434;28;20511;-83
2022/03/28 13:11:11;;;;;;;22.05;6.97;;;;;;;;;;5113897;28;20514;-83
2022/03/28 13:13:40;;;;;;;24.38;7.50;;;;;;;;;;5095406;28;20048;-82
2022/03/28 13:16:07;;;;;;;17.70;6.90;;;;;;;;;;5095058;28;20095;-82
2022/03/28 13:18:35;;;;;;;20.27;7.35;;;;;;;;;;5095510;28;20446;-82
2022/03/28 13:21:01;;;;;;;20.10;6.85;;;;;;;;;;5109718;27;20056;-82
2022/03/28 13:23:31;;;;;;;18.30;6.60;;;;;;;;;;5094244;27;20064;-81
2022/03/28 13:26:09;;;;;;;16.85;6.68;;;;;;;;;;5107789;28;20052;-82
2022/03/28 13:28:36;;;;;;;17.23;6.20;;;;;;;;;;5108760;28;20118;-82
2022/03/28 13:31:05;;;;;;;18.50;6.40;;;;;;;;;;5092947;28;20078;-82
2022/03/28 13:33:31;;;;;;;22.40;6.53;;;;;;;;;;5118539;27;20138;-82
2022/03/28 13:35:58;;;;;;;19.52;6.40;;;;;;;;;;5103045;27;20052;-81
2022/03/28 13:38:26;;;;;;;16.25;6.78;;;;;;;;;;5092828;28;20624;-82
2022/03/28 13:40:53;;;;;;;23.95;6.15;;;;;;;;;;5112821;27;20047;-82
2022/03/28 13:43:23;;;;;;;21.80;6.35;;;;;;;;;;5094335;28;20047;-82
2022/03/28 13:45:49;;;;;;;20.48;6.03;;;;;;;;;;5090097;28;20056;-82
2022/03/28 13:48:18;;;;;;;20.75;5.30;;;;;;;;;;5092885;28;20052;-82
2022/03/28 13:50:46;;;;;;;14.80;5.30;;;;;;;;;;5113178;28;20106;-81
2022/03/28 13:53:33;;;;;;;17.60;5.53;;;;;;;;;;5098105;28;20213;-82
2022/03/28 13:56:00;;;;;;;16.65;5.05;;;;;;;;;;5090149;27;20052;-82
2022/03/28 13:58:27;;;;;;;18.83;5.70;;;;;;;;;;5109354;28;20109;-82
2022/03/28 14:00:55;;;;;;;15.73;4.88;;;;;;;;;;5094880;28;20082;-83
2022/03/28 14:03:22;;;;;;;15.63;5.10;;;;;;;;;;5093885;28;20056;-83
2022/03/28 14:05:51;;;;;;;16.65;4.93;;;;;;;;;;5112738;28;20580;-80
2022/03/28 14:08:18;;;;;;;20.05;5.95;;;;;;;;;;5113621;28;20052;-80
2022/03/28 14:10:45;;;;;;;19.55;5.60;;;;;;;;;;5093429;28;20056;-81
2022/03/28 14:13:12;;;;;;;17.65;5.70;;;;;;;;;;5093101;28;20036;-82
2022/03/28 14:15:39;;;;;;;15.95;5.40;;;;;;;;;;5111730;27;20499;-82
2022/03/28 14:18:05;;;;;;;20.10;6.43;;;;;;;;;;5112757;28;20052;-82
2022/03/28 14:20:31;;;;;;;14.57;5.38;;;;;;;;;;5095050;28;20052;-82
2022/03/28 14:22:58;;;;;;;16.58;5.22;;;;;;;;;;5113288;28;20098;-81
2022/03/28 14:25:26;;;;;;;19.42;5.65;;;;;;;;;;5100335;28;20048;-82
2022/03/28 14:27:54;;;;;;;16.02;6.28;;;;;;;;;;5097727;27;20126;-81
2022/03/28 14:30:20;;;;;;;11.82;5.30;;;;;;;;;;5095025;28;20052;-82
2022/03/28 14:32:47;;;;;;;12.63;5.75;;;;;;;;;;5113269;28;20547;-82
2022/03/28 14:35:13;;;;;;;16.75;6.03;;;;;;;;;;5112622;28;20106;-82
2022/03/28 14:37:39;;;;;;;20.05;5.90;;;;;;;;;;5113831;28;20518;-81
2022/03/28 14:40:07;;;;;;;18.92;6.75;;;;;;;;;;5112187;27;20044;-81